Aviation Digital Data Service (ADDS)

Output produced by METARs form (0043 UTC 05 July 2022)
found at http://www.aviationweather.gov/metar/data/
 
Forecast for: EGKK (LONDON/GATWICK A, GB)
Text: TAF EGKK 042253Z 0500/0606 30006KT 9999 SCT045
Forecast period: 0000 UTC 05 July 2022 to 0600 UTC 06 July 2022
Forecast type: FROM: standard forecast or significant change
Winds: from the WNW (300 degrees) at 7 MPH (6 knots; 3.1 m/s)
Visibility: 6 or more miles (10+ km)
Ceiling: at least 12,000 feet AGL
Clouds: scattered clouds at 4500 feet AGL
Weather: no significant weather forecast for this period